sensor_id;sensor_type;location;lat;lon;timestamp;temperature;humidity
22067;DHT22;72821;49.814;19.034;2023-11-21T00:02:00;20.60;56.40
22067;DHT22;72821;49.814;19.034;2023-11-21T00:07:02;20.50;53.70
22067;DHT22;72821;49.814;19.034;2023-11-21T00:12:05;20.50;50.60
22067;DHT22;72821;49.814;19.034;2023-11-21T00:17:08;20.50;50.50
22067;DHT22;72821;49.814;19.034;2023-11-21T00:22:10;20.50;49.30
22067;DHT22;72821;49.814;19.034;2023-11-21T00:27:12;20.40;48.10
22067;DHT22;72821;49.814;19.034;2023-11-21T00:32:15;20.50;48.80
22067;DHT22;72821;49.814;19.034;2023-11-21T00:37:17;20.50;48.30
22067;DHT22;72821;49.814;19.034;2023-11-21T00:42:19;20.50;47.70
22067;DHT22;72821;49.814;19.034;2023-11-21T00:47:23;20.60;49.10
22067;DHT22;72821;49.814;19.034;2023-11-21T00:52:25;20.80;48.60
22067;DHT22;72821;49.814;19.034;2023-11-21T00:57:28;20.90;46.90
22067;DHT22;72821;49.814;19.034;2023-11-21T01:02:30;21.10;47.00
22067;DHT22;72821;49.814;19.034;2023-11-21T01:07:32;21.00;45.50
22067;DHT22;72821;49.814;19.034;2023-11-21T01:12:35;20.80;49.20
22067;DHT22;72821;49.814;19.034;2023-11-21T01:17:39;21.00;48.80
22067;DHT22;72821;49.814;19.034;2023-11-21T01:22:41;21.00;48.00
22067;DHT22;72821;49.814;19.034;2023-11-21T01:27:44;20.90;49.70
22067;DHT22;72821;49.814;19.034;2023-11-21T01:32:46;20.80;51.70
22067;DHT22;72821;49.814;19.034;2023-11-21T01:37:48;20.80;55.00
22067;DHT22;72821;49.814;19.034;2023-11-21T01:42:53;20.70;57.30
22067;DHT22;72821;49.814;19.034;2023-11-21T01:47:55;20.70;52.30
22067;DHT22;72821;49.814;19.034;2023-11-21T01:52:58;20.60;54.30
22067;DHT22;72821;49.814;19.034;2023-11-21T01:58:02;20.50;53.10
22067;DHT22;72821;49.814;19.034;2023-11-21T02:03:04;20.40;51.30
22067;DHT22;72821;49.814;19.034;2023-11-21T02:08:09;20.30;50.10
22067;DHT22;72821;49.814;19.034;2023-11-21T02:13:11;20.40;49.60
22067;DHT22;72821;49.814;19.034;2023-11-21T02:18:13;20.40;48.80
22067;DHT22;72821;49.814;19.034;2023-11-21T02:23:17;20.30;49.40
22067;DHT22;72821;49.814;19.034;2023-11-21T02:28:19;20.30;47.90
22067;DHT22;72821;49.814;19.034;2023-11-21T02:33:28;20.20;48.30
22067;DHT22;72821;49.814;19.034;2023-11-21T02:38:30;20.40;48.90
22067;DHT22;72821;49.814;19.034;2023-11-21T02:43:32;20.40;47.70
22067;DHT22;72821;49.814;19.034;2023-11-21T02:48:35;20.40;48.20
22067;DHT22;72821;49.814;19.034;2023-11-21T02:53:37;20.40;48.50
22067;DHT22;72821;49.814;19.034;2023-11-21T02:58:43;20.60;48.40
22067;DHT22;72821;49.814;19.034;2023-11-21T03:03:46;20.80;48.00
22067;DHT22;72821;49.814;19.034;2023-11-21T03:08:53;20.70;47.40
22067;DHT22;72821;49.814;19.034;2023-11-21T03:13:55;20.80;47.80
22067;DHT22;72821;49.814;19.034;2023-11-21T03:18:57;20.80;47.60
22067;DHT22;72821;49.814;19.034;2023-11-21T03:23:59;20.80;47.20
22067;DHT22;72821;49.814;19.034;2023-11-21T03:29:02;20.90;47.20
22067;DHT22;72821;49.814;19.034;2023-11-21T03:34:04;21.00;46.70
22067;DHT22;72821;49.814;19.034;2023-11-21T03:39:06;21.20;46.60
22067;DHT22;72821;49.814;19.034;2023-11-21T03:44:08;21.30;46.90
22067;DHT22;72821;49.814;19.034;2023-11-21T03:49:10;21.20;45.80
22067;DHT22;72821;49.814;19.034;2023-11-21T03:54:13;21.30;46.30
22067;DHT22;72821;49.814;19.034;2023-11-21T03:59:16;21.20;45.60
22067;DHT22;72821;49.814;19.034;2023-11-21T04:04:18;21.30;45.20
22067;DHT22;72821;49.814;19.034;2023-11-21T04:09:21;21.30;45.40
22067;DHT22;72821;49.814;19.034;2023-11-21T04:14:27;21.20;44.70
22067;DHT22;72821;49.814;19.034;2023-11-21T04:19:29;21.20;44.30
22067;DHT22;72821;49.814;19.034;2023-11-21T04:24:31;21.10;45.30
22067;DHT22;72821;49.814;19.034;2023-11-21T04:29:33;21.20;45.10
22067;DHT22;72821;49.814;19.034;2023-11-21T04:34:36;21.10;45.40
22067;DHT22;72821;49.814;19.034;2023-11-21T04:39:39;21.00;44.20
22067;DHT22;72821;49.814;19.034;2023-11-21T04:44:41;20.90;45.50
22067;DHT22;72821;49.814;19.034;2023-11-21T04:49:46;20.90;44.20
22067;DHT22;72821;49.814;19.034;2023-11-21T04:54:49;21.00;44.80
22067;DHT22;72821;49.814;19.034;2023-11-21T04:59:51;20.90;43.60
22067;DHT22;72821;49.814;19.034;2023-11-21T05:04:53;20.90;44.80
22067;DHT22;72821;49.814;19.034;2023-11-21T05:09:55;20.90;45.10
22067;DHT22;72821;49.814;19.034;2023-11-21T05:14:58;20.90;45.10
22067;DHT22;72821;49.814;19.034;2023-11-21T05:20:00;20.90;45.20
22067;DHT22;72821;49.814;19.034;2023-11-21T05:25:06;20.80;44.50
22067;DHT22;72821;49.814;19.034;2023-11-21T05:30:10;20.90;45.00
22067;DHT22;72821;49.814;19.034;2023-11-21T05:35:14;20.70;44.10
22067;DHT22;72821;49.814;19.034;2023-11-21T05:40:20;20.60;44.90
22067;DHT22;72821;49.814;19.034;2023-11-21T05:45:24;20.70;45.00
22067;DHT22;72821;49.814;19.034;2023-11-21T05:50:26;20.60;44.00
22067;DHT22;72821;49.814;19.034;2023-11-21T05:55:28;20.60;45.10
22067;DHT22;72821;49.814;19.034;2023-11-21T06:00:31;20.60;44.00
22067;DHT22;72821;49.814;19.034;2023-11-21T06:05:34;20.90;46.00
22067;DHT22;72821;49.814;19.034;2023-11-21T06:10:36;21.00;44.50
22067;DHT22;72821;49.814;19.034;2023-11-21T06:15:38;20.90;43.80
22067;DHT22;72821;49.814;19.034;2023-11-21T06:20:40;20.80;44.60
22067;DHT22;72821;49.814;19.034;2023-11-21T06:25:42;20.90;44.10
22067;DHT22;72821;49.814;19.034;2023-11-21T06:30:45;21.00;43.30
22067;DHT22;72821;49.814;19.034;2023-11-21T06:35:47;21.00;41.40
22067;DHT22;72821;49.814;19.034;2023-11-21T06:40:49;20.90;41.30
22067;DHT22;72821;49.814;19.034;2023-11-21T06:45:51;20.80;41.40
22067;DHT22;72821;49.814;19.034;2023-11-21T06:50:53;20.90;41.30
22067;DHT22;72821;49.814;19.034;2023-11-21T06:55:56;21.00;40.80
22067;DHT22;72821;49.814;19.034;2023-11-21T07:00:58;21.00;40.40
22067;DHT22;72821;49.814;19.034;2023-11-21T07:06:00;21.10;40.60
22067;DHT22;72821;49.814;19.034;2023-11-21T07:11:03;21.10;40.40
22067;DHT22;72821;49.814;19.034;2023-11-21T07:16:05;21.20;40.40
22067;DHT22;72821;49.814;19.034;2023-11-21T07:21:08;21.20;40.30
22067;DHT22;72821;49.814;19.034;2023-11-21T07:26:10;21.30;39.80
22067;DHT22;72821;49.814;19.034;2023-11-21T07:31:13;21.50;39.60
22067;DHT22;72821;49.814;19.034;2023-11-21T07:36:16;21.70;39.70
22067;DHT22;72821;49.814;19.034;2023-11-21T07:41:20;21.80;39.20
22067;DHT22;72821;49.814;19.034;2023-11-21T07:46:32;22.00;38.90
22067;DHT22;72821;49.814;19.034;2023-11-21T07:51:34;22.20;37.80
22067;DHT22;72821;49.814;19.034;2023-11-21T07:56:37;22.50;37.50
22067;DHT22;72821;49.814;19.034;2023-11-21T08:01:39;22.50;37.40
22067;DHT22;72821;49.814;19.034;2023-11-21T08:06:42;22.60;37.00
22067;DHT22;72821;49.814;19.034;2023-11-21T08:11:44;22.70;36.20
22067;DHT22;72821;49.814;19.034;2023-11-21T08:16:48;22.90;36.20
22067;DHT22;72821;49.814;19.034;2023-11-21T08:21:51;23.20;35.70
22067;DHT22;72821;49.814;19.034;2023-11-21T08:26:56;23.40;35.00
22067;DHT22;72821;49.814;19.034;2023-11-21T08:31:58;23.50;34.70
22067;DHT22;72821;49.814;19.034;2023-11-21T08:37:02;23.70;34.90
22067;DHT22;72821;49.814;19.034;2023-11-21T08:42:04;23.70;34.00
22067;DHT22;72821;49.814;19.034;2023-11-21T08:47:06;23.50;33.70
22067;DHT22;72821;49.814;19.034;2023-11-21T08:52:10;23.30;34.40
22067;DHT22;72821;49.814;19.034;2023-11-21T08:57:12;23.30;34.40
22067;DHT22;72821;49.814;19.034;2023-11-21T09:02:14;23.50;34.30
22067;DHT22;72821;49.814;19.034;2023-11-21T09:07:21;23.60;33.60
22067;DHT22;72821;49.814;19.034;2023-11-21T09:12:23;23.60;33.50
22067;DHT22;72821;49.814;19.034;2023-11-21T09:17:26;23.70;33.60
22067;DHT22;72821;49.814;19.034;2023-11-21T09:22:29;23.70;33.30
22067;DHT22;72821;49.814;19.034;2023-11-21T09:27:32;23.70;33.50
22067;DHT22;72821;49.814;19.034;2023-11-21T09:32:34;23.60;33.70
22067;DHT22;72821;49.814;19.034;2023-11-21T09:37:38;23.30;34.00
22067;DHT22;72821;49.814;19.034;2023-11-21T09:42:52;23.20;34.50
22067;DHT22;72821;49.814;19.034;2023-11-21T09:47:56;23.20;35.10
22067;DHT22;72821;49.814;19.034;2023-11-21T09:53:18;23.00;35.50
22067;DHT22;72821;49.814;19.034;2023-11-21T09:58:23;22.90;35.70
22067;DHT22;72821;49.814;19.034;2023-11-21T10:03:27;22.80;35.70
22067;DHT22;72821;49.814;19.034;2023-11-21T10:08:30;22.60;36.10
22067;DHT22;72821;49.814;19.034;2023-11-21T10:13:54;22.50;35.90
22067;DHT22;72821;49.814;19.034;2023-11-21T10:18:58;22.40;35.90
22067;DHT22;72821;49.814;19.034;2023-11-21T10:24:12;22.10;36.50
22067;DHT22;72821;49.814;19.034;2023-11-21T10:29:14;22.20;36.70
22067;DHT22;72821;49.814;19.034;2023-11-21T10:34:20;22.40;36.80
22067;DHT22;72821;49.814;19.034;2023-11-21T10:39:24;22.60;36.00
22067;DHT22;72821;49.814;19.034;2023-11-21T10:44:32;22.50;36.20
22067;DHT22;72821;49.814;19.034;2023-11-21T10:49:37;22.70;36.20
22067;DHT22;72821;49.814;19.034;2023-11-21T10:54:39;22.90;36.00
22067;DHT22;72821;49.814;19.034;2023-11-21T10:59:41;23.00;35.30
22067;DHT22;72821;49.814;19.034;2023-11-21T11:04:44;23.10;35.10
22067;DHT22;72821;49.814;19.034;2023-11-21T11:09:47;23.00;35.40
22067;DHT22;72821;49.814;19.034;2023-11-21T11:14:51;22.70;35.20
22067;DHT22;72821;49.814;19.034;2023-11-21T11:19:54;22.40;35.40
22067;DHT22;72821;49.814;19.034;2023-11-21T11:25:41;22.30;36.10
22067;DHT22;72821;49.814;19.034;2023-11-21T11:36:34;22.10;36.70
22067;DHT22;72821;49.814;19.034;2023-11-21T11:41:38;22.00;37.00
22067;DHT22;72821;49.814;19.034;2023-11-21T11:46:45;22.10;37.10
22067;DHT22;72821;49.814;19.034;2023-11-21T11:51:48;22.40;35.80
22067;DHT22;72821;49.814;19.034;2023-11-21T11:57:14;21.90;36.30
22067;DHT22;72821;49.814;19.034;2023-11-21T12:02:16;22.00;35.90
22067;DHT22;72821;49.814;19.034;2023-11-21T12:07:18;22.30;35.60
22067;DHT22;72821;49.814;19.034;2023-11-21T12:12:22;22.20;35.30
22067;DHT22;72821;49.814;19.034;2023-11-21T12:17:24;22.20;35.20
22067;DHT22;72821;49.814;19.034;2023-11-21T12:22:26;22.20;35.40
22067;DHT22;72821;49.814;19.034;2023-11-21T12:27:28;22.40;35.20
22067;DHT22;72821;49.814;19.034;2023-11-21T12:32:32;22.40;35.00
22067;DHT22;72821;49.814;19.034;2023-11-21T12:37:34;22.30;35.10
22067;DHT22;72821;49.814;19.034;2023-11-21T12:42:36;22.50;35.10
22067;DHT22;72821;49.814;19.034;2023-11-21T12:47:39;22.40;35.00
22067;DHT22;72821;49.814;19.034;2023-11-21T12:52:45;22.30;35.10
22067;DHT22;72821;49.814;19.034;2023-11-21T12:57:53;22.20;35.30
22067;DHT22;72821;49.814;19.034;2023-11-21T13:02:59;22.30;35.50
22067;DHT22;72821;49.814;19.034;2023-11-21T13:08:03;22.50;35.20
22067;DHT22;72821;49.814;19.034;2023-11-21T13:13:10;22.50;35.00
22067;DHT22;72821;49.814;19.034;2023-11-21T13:18:20;22.50;35.30
22067;DHT22;72821;49.814;19.034;2023-11-21T13:23:24;22.60;35.20
22067;DHT22;72821;49.814;19.034;2023-11-21T13:28:26;22.70;35.30
22067;DHT22;72821;49.814;19.034;2023-11-21T13:33:34;22.60;35.30
22067;DHT22;72821;49.814;19.034;2023-11-21T13:38:39;22.50;35.30
22067;DHT22;72821;49.814;19.034;2023-11-21T13:43:45;22.40;36.40
22067;DHT22;72821;49.814;19.034;2023-11-21T13:48:54;22.60;37.20
22067;DHT22;72821;49.814;19.034;2023-11-21T13:53:58;22.60;37.70
22067;DHT22;72821;49.814;19.034;2023-11-21T13:59:01;22.50;37.80
22067;DHT22;72821;49.814;19.034;2023-11-21T14:04:11;22.50;37.90
22067;DHT22;72821;49.814;19.034;2023-11-21T14:09:22;22.60;37.60
22067;DHT22;72821;49.814;19.034;2023-11-21T14:14:27;22.60;37.70
22067;DHT22;72821;49.814;19.034;2023-11-21T14:19:30;22.60;37.60
22067;DHT22;72821;49.814;19.034;2023-11-21T14:24:35;22.60;37.60
22067;DHT22;72821;49.814;19.034;2023-11-21T14:29:37;22.60;37.60
22067;DHT22;72821;49.814;19.034;2023-11-21T14:34:41;22.40;37.80
22067;DHT22;72821;49.814;19.034;2023-11-21T14:39:47;22.20;37.90
22067;DHT22;72821;49.814;19.034;2023-11-21T14:44:52;21.90;38.90
22067;DHT22;72821;49.814;19.034;2023-11-21T14:49:54;21.90;38.50
22067;DHT22;72821;49.814;19.034;2023-11-21T14:55:02;21.80;38.50
22067;DHT22;72821;49.814;19.034;2023-11-21T15:00:23;21.90;38.40
22067;DHT22;72821;49.814;19.034;2023-11-21T15:05:37;21.80;38.40
22067;DHT22;72821;49.814;19.034;2023-11-21T15:10:41;21.80;37.90
22067;DHT22;72821;49.814;19.034;2023-11-21T15:15:56;22.00;37.80
22067;DHT22;72821;49.814;19.034;2023-11-21T15:21:02;22.10;37.20
22067;DHT22;72821;49.814;19.034;2023-11-21T15:26:09;22.10;37.30
22067;DHT22;72821;49.814;19.034;2023-11-21T15:31:12;22.00;37.50
22067;DHT22;72821;49.814;19.034;2023-11-21T15:36:19;22.10;37.40
22067;DHT22;72821;49.814;19.034;2023-11-21T15:41:22;22.00;37.60
22067;DHT22;72821;49.814;19.034;2023-11-21T15:46:24;22.10;37.70
22067;DHT22;72821;49.814;19.034;2023-11-21T15:51:26;22.20;37.70
22067;DHT22;72821;49.814;19.034;2023-11-21T15:56:28;22.20;37.70
22067;DHT22;72821;49.814;19.034;2023-11-21T16:01:31;21.90;38.20
22067;DHT22;72821;49.814;19.034;2023-11-21T16:06:33;21.70;38.70
22067;DHT22;72821;49.814;19.034;2023-11-21T16:11:41;21.80;38.50
22067;DHT22;72821;49.814;19.034;2023-11-21T16:16:43;21.80;38.40
22067;DHT22;72821;49.814;19.034;2023-11-21T16:21:48;21.80;38.60
22067;DHT22;72821;49.814;19.034;2023-11-21T16:26:50;21.70;39.10
22067;DHT22;72821;49.814;19.034;2023-11-21T16:31:52;21.50;39.30
22067;DHT22;72821;49.814;19.034;2023-11-21T16:36:56;21.30;40.20
22067;DHT22;72821;49.814;19.034;2023-11-21T16:41:58;21.10;44.30
22067;DHT22;72821;49.814;19.034;2023-11-21T16:47:00;21.00;43.20
22067;DHT22;72821;49.814;19.034;2023-11-21T16:52:09;21.00;44.30
22067;DHT22;72821;49.814;19.034;2023-11-21T16:57:11;21.10;43.70
22067;DHT22;72821;49.814;19.034;2023-11-21T17:02:13;21.10;43.50
22067;DHT22;72821;49.814;19.034;2023-11-21T17:07:17;21.20;42.60
22067;DHT22;72821;49.814;19.034;2023-11-21T17:12:22;21.30;43.30
22067;DHT22;72821;49.814;19.034;2023-11-21T17:17:26;21.40;42.20
22067;DHT22;72821;49.814;19.034;2023-11-21T17:22:29;21.40;42.10
22067;DHT22;72821;49.814;19.034;2023-11-21T17:27:31;21.50;42.20
22067;DHT22;72821;49.814;19.034;2023-11-21T17:32:34;21.40;41.60
22067;DHT22;72821;49.814;19.034;2023-11-21T17:37:37;21.00;42.10
22067;DHT22;72821;49.814;19.034;2023-11-21T17:42:39;20.90;42.40
22067;DHT22;72821;49.814;19.034;2023-11-21T17:47:41;21.00;43.90
22067;DHT22;72821;49.814;19.034;2023-11-21T17:52:45;20.90;43.60
22067;DHT22;72821;49.814;19.034;2023-11-21T17:57:47;20.70;50.80
22067;DHT22;72821;49.814;19.034;2023-11-21T18:02:50;20.60;45.40
22067;DHT22;72821;49.814;19.034;2023-11-21T18:07:52;20.50;44.40
22067;DHT22;72821;49.814;19.034;2023-11-21T18:12:54;20.50;44.30
22067;DHT22;72821;49.814;19.034;2023-11-21T18:17:56;20.40;44.30
22067;DHT22;72821;49.814;19.034;2023-11-21T18:22:59;20.30;44.80
22067;DHT22;72821;49.814;19.034;2023-11-21T18:28:01;20.30;45.10
22067;DHT22;72821;49.814;19.034;2023-11-21T18:33:04;20.40;44.50
22067;DHT22;72821;49.814;19.034;2023-11-21T18:38:06;20.60;44.10
22067;DHT22;72821;49.814;19.034;2023-11-21T18:43:09;20.60;43.90
22067;DHT22;72821;49.814;19.034;2023-11-21T18:48:11;20.60;44.30
22067;DHT22;72821;49.814;19.034;2023-11-21T18:53:15;20.60;44.00
22067;DHT22;72821;49.814;19.034;2023-11-21T18:58:17;20.80;43.80
22067;DHT22;72821;49.814;19.034;2023-11-21T19:03:19;20.90;43.50
22067;DHT22;72821;49.814;19.034;2023-11-21T19:08:22;20.90;43.10
22067;DHT22;72821;49.814;19.034;2023-11-21T19:13:24;21.10;43.50
22067;DHT22;72821;49.814;19.034;2023-11-21T19:18:27;21.20;43.10
22067;DHT22;72821;49.814;19.034;2023-11-21T19:23:29;21.40;43.00
22067;DHT22;72821;49.814;19.034;2023-11-21T19:28:31;21.50;42.40
22067;DHT22;72821;49.814;19.034;2023-11-21T19:33:33;21.50;42.10
22067;DHT22;72821;49.814;19.034;2023-11-21T19:38:37;21.60;41.80
22067;DHT22;72821;49.814;19.034;2023-11-21T19:43:39;21.60;41.60
22067;DHT22;72821;49.814;19.034;2023-11-21T19:48:42;21.70;41.70
22067;DHT22;72821;49.814;19.034;2023-11-21T19:53:45;21.70;42.90
22067;DHT22;72821;49.814;19.034;2023-11-21T19:58:47;21.60;41.60
22067;DHT22;72821;49.814;19.034;2023-11-21T20:03:54;21.40;41.60
22067;DHT22;72821;49.814;19.034;2023-11-21T20:08:56;21.00;41.80
22067;DHT22;72821;49.814;19.034;2023-11-21T20:14:01;20.70;42.30
22067;DHT22;72821;49.814;19.034;2023-11-21T20:19:05;20.50;42.00
22067;DHT22;72821;49.814;19.034;2023-11-21T20:24:09;20.40;41.40
22067;DHT22;72821;49.814;19.034;2023-11-21T20:29:15;20.40;41.10
22067;DHT22;72821;49.814;19.034;2023-11-21T20:34:19;20.40;40.30
22067;DHT22;72821;49.814;19.034;2023-11-21T20:39:21;20.30;39.90
22067;DHT22;72821;49.814;19.034;2023-11-21T20:44:25;20.20;39.80
22067;DHT22;72821;49.814;19.034;2023-11-21T20:49:27;20.20;39.70
22067;DHT22;72821;49.814;19.034;2023-11-21T20:54:42;20.10;46.80
22067;DHT22;72821;49.814;19.034;2023-11-21T20:59:46;19.80;44.20
22067;DHT22;72821;49.814;19.034;2023-11-21T21:04:50;19.70;44.20
22067;DHT22;72821;49.814;19.034;2023-11-21T21:09:52;19.50;42.80
22067;DHT22;72821;49.814;19.034;2023-11-21T21:14:55;19.40;43.10
22067;DHT22;72821;49.814;19.034;2023-11-21T21:20:00;19.30;42.40
22067;DHT22;72821;49.814;19.034;2023-11-21T21:25:03;19.30;42.20
22067;DHT22;72821;49.814;19.034;2023-11-21T21:30:06;19.10;43.20
22067;DHT22;72821;49.814;19.034;2023-11-21T21:35:09;19.00;46.10
22067;DHT22;72821;49.814;19.034;2023-11-21T21:40:11;18.90;47.20
22067;DHT22;72821;49.814;19.034;2023-11-21T21:45:13;18.70;45.10
22067;DHT22;72821;49.814;19.034;2023-11-21T21:50:16;18.70;45.10
22067;DHT22;72821;49.814;19.034;2023-11-21T21:55:18;18.70;43.60
22067;DHT22;72821;49.814;19.034;2023-11-21T22:00:21;18.70;42.90
22067;DHT22;72821;49.814;19.034;2023-11-21T22:05:25;18.70;42.20
22067;DHT22;72821;49.814;19.034;2023-11-21T22:10:28;18.70;41.60
22067;DHT22;72821;49.814;19.034;2023-11-21T22:15:30;18.50;40.70
22067;DHT22;72821;49.814;19.034;2023-11-21T22:20:32;18.40;42.90
22067;DHT22;72821;49.814;19.034;2023-11-21T22:25:35;18.20;43.40
22067;DHT22;72821;49.814;19.034;2023-11-21T22:30:37;18.10;43.50
22067;DHT22;72821;49.814;19.034;2023-11-21T22:35:40;17.90;46.50
22067;DHT22;72821;49.814;19.034;2023-11-21T22:40:47;18.00;46.60
22067;DHT22;72821;49.814;19.034;2023-11-21T22:45:49;17.90;42.10
22067;DHT22;72821;49.814;19.034;2023-11-21T22:50:52;17.90;42.10
22067;DHT22;72821;49.814;19.034;2023-11-21T22:55:54;18.00;42.50
22067;DHT22;72821;49.814;19.034;2023-11-21T23:00:56;17.90;41.50
22067;DHT22;72821;49.814;19.034;2023-11-21T23:06:00;17.90;42.00
22067;DHT22;72821;49.814;19.034;2023-11-21T23:11:02;17.90;42.70
22067;DHT22;72821;49.814;19.034;2023-11-21T23:16:04;17.70;41.70
22067;DHT22;72821;49.814;19.034;2023-11-21T23:21:07;17.80;42.20
22067;DHT22;72821;49.814;19.034;2023-11-21T23:26:17;17.80;41.60
22067;DHT22;72821;49.814;19.034;2023-11-21T23:31:20;17.90;41.10
22067;DHT22;72821;49.814;19.034;2023-11-21T23:36:22;17.80;40.80
22067;DHT22;72821;49.814;19.034;2023-11-21T23:41:25;17.60;40.60
22067;DHT22;72821;49.814;19.034;2023-11-21T23:46:27;17.40;40.40
22067;DHT22;72821;49.814;19.034;2023-11-21T23:51:29;17.30;41.00
22067;DHT22;72821;49.814;19.034;2023-11-21T23:56:32;17.30;41.70
